createdAt,value
2022-09-09T00:01:10.663Z,95483.50
2022-09-09T00:03:46.610Z,95489.84
2022-09-09T00:06:29.304Z,95481.22
2022-09-09T00:09:02.569Z,95477.09
2022-09-09T00:12:02.358Z,95479.16
2022-09-09T00:15:15.491Z,95481.41
2022-09-09T00:18:30.877Z,95476.22
2022-09-09T00:21:08.661Z,95471.88
2022-09-09T00:23:40.131Z,95472.91
2022-09-09T00:26:25.749Z,95466.16
2022-09-09T00:29:04.951Z,95469.66
2022-09-09T00:31:32.828Z,95473.19
2022-09-09T00:34:10.313Z,95465.47
2022-09-09T00:36:38.896Z,95456.00
2022-09-09T00:39:10.506Z,95454.28
2022-09-09T00:41:51.965Z,95446.47
2022-09-09T00:44:32.270Z,95455.31
2022-09-09T00:47:26.909Z,95444.56
2022-09-09T00:50:17.846Z,95450.44
2022-09-09T00:53:19.301Z,95458.44
2022-09-09T00:56:17.333Z,95461.28
2022-09-09T00:58:59.189Z,95466.41
2022-09-09T01:01:26.508Z,95470.00
2022-09-09T01:03:55.577Z,95463.50
2022-09-09T01:06:31.656Z,95462.38
2022-09-09T01:09:27.601Z,95475.59
2022-09-09T01:12:13.283Z,95478.19
2022-09-09T01:14:48.990Z,95468.06
2022-09-09T01:17:35.570Z,95475.50
2022-09-09T01:20:46.011Z,95474.84
2022-09-09T01:23:39.442Z,95479.50
2022-09-09T01:26:41.763Z,95484.16
2022-09-09T01:29:17.366Z,95486.94
2022-09-09T01:32:00.167Z,95491.22
2022-09-09T01:34:36.159Z,95496.06
2022-09-09T01:37:10.887Z,95499.56
2022-09-09T01:39:42.532Z,95508.22
2022-09-09T01:42:16.005Z,95505.03
2022-09-09T01:44:43.693Z,95501.84
2022-09-09T01:47:10.807Z,95483.13
2022-09-09T01:49:54.193Z,95496.91
2022-09-09T01:52:26.192Z,95493.16
2022-09-09T01:54:53.763Z,95494.03
2022-09-09T01:57:40.425Z,95495.94
2022-09-09T02:00:14.457Z,95497.47
2022-09-09T02:03:15.349Z,95491.28
2022-09-09T02:06:38.525Z,95488.88
2022-09-09T02:09:23.440Z,95487.72
2022-09-09T02:11:59.892Z,95475.19
2022-09-09T02:14:45.255Z,95465.06
2022-09-09T02:17:16.259Z,95458.94
2022-09-09T02:20:06.441Z,95464.09
2022-09-09T02:22:51.935Z,95473.22
2022-09-09T02:25:23.146Z,95464.22
2022-09-09T02:27:54.865Z,95465.34
2022-09-09T02:30:22.448Z,95478.06
2022-09-09T02:32:57.977Z,95464.59
2022-09-09T02:35:38.523Z,95463.03
2022-09-09T02:38:10.317Z,95472.59
2022-09-09T02:40:38.439Z,95468.03
2022-09-09T02:43:07.336Z,95460.28
2022-09-09T02:46:15.983Z,95454.00
2022-09-09T02:48:57.551Z,95450.81
2022-09-09T02:51:41.998Z,95456.59
2022-09-09T02:54:33.962Z,95444.91
2022-09-09T02:57:14.650Z,95449.22
2022-09-09T02:59:44.960Z,95446.47
2022-09-09T03:02:12.469Z,95443.00
2022-09-09T03:04:41.531Z,95451.56
2022-09-09T03:07:09.015Z,95443.84
2022-09-09T03:09:36.235Z,95449.59
2022-09-09T03:12:05.222Z,95444.41
2022-09-09T03:14:34.379Z,95445.56
2022-09-09T03:17:03.246Z,95452.13
2022-09-09T03:19:36.180Z,95459.34
2022-09-09T03:22:05.379Z,95447.69
2022-09-09T03:24:35.731Z,95439.44
2022-09-09T03:27:04.872Z,95450.22
2022-09-09T03:29:32.507Z,95445.06
2022-09-09T03:32:02.936Z,95446.13
2022-09-09T03:34:30.045Z,95447.31
2022-09-09T03:36:58.691Z,95457.34
2022-09-09T03:39:27.272Z,95462.31
2022-09-09T03:41:54.436Z,95461.63
2022-09-09T03:44:22.383Z,95456.38
2022-09-09T03:46:49.451Z,95455.75
2022-09-09T03:49:17.708Z,95460.59
2022-09-09T03:51:45.130Z,95458.09
2022-09-09T03:54:17.555Z,95455.84
2022-09-09T03:56:44.706Z,95460.06
2022-09-09T03:59:15.264Z,95461.53
2022-09-09T04:01:42.891Z,95466.38
2022-09-09T04:04:10.585Z,95461.78
2022-09-09T04:06:37.670Z,95460.78
2022-09-09T04:09:04.872Z,95458.38
2022-09-09T04:11:33.031Z,95458.16
2022-09-09T04:14:00.882Z,95458.69
2022-09-09T04:16:30.255Z,95469.19
2022-09-09T04:18:58.756Z,95462.66
2022-09-09T04:21:25.989Z,95459.91
2022-09-09T04:23:53.952Z,95454.53
2022-09-09T04:26:21.600Z,95469.75
2022-09-09T04:28:48.980Z,95466.66
2022-09-09T04:31:22.494Z,95454.03
2022-09-09T04:33:51.778Z,95463.91
2022-09-09T04:36:20.319Z,95456.00
2022-09-09T04:38:50.115Z,95464.84
2022-09-09T04:41:18.085Z,95464.75
2022-09-09T04:43:47.060Z,95460.31
2022-09-09T04:46:18.066Z,95465.06
2022-09-09T04:48:45.373Z,95470.44
2022-09-09T04:51:14.861Z,95466.97
2022-09-09T04:53:43.257Z,95484.06
2022-09-09T04:56:15.090Z,95486.50
2022-09-09T04:58:46.998Z,95476.66
2022-09-09T05:01:22.551Z,95475.38
2022-09-09T05:03:52.747Z,95478.53
2022-09-09T05:06:23.247Z,95484.91
2022-09-09T05:08:56.692Z,95495.66
2022-09-09T05:11:29.008Z,95493.06
2022-09-09T05:14:16.321Z,95490.13
2022-09-09T05:16:45.265Z,95491.72
2022-09-09T05:19:12.609Z,95494.63
2022-09-09T05:21:45.172Z,95495.81
2022-09-09T05:24:12.786Z,95499.66
2022-09-09T05:26:40.596Z,95498.41
2022-09-09T05:29:09.209Z,95499.69
2022-09-09T05:31:36.505Z,95506.78
2022-09-09T05:34:09.607Z,95502.34
2022-09-09T05:36:36.836Z,95499.75
2022-09-09T05:39:04.792Z,95500.88
2022-09-09T05:41:33.850Z,95494.81
2022-09-09T05:44:02.998Z,95493.41
2022-09-09T05:46:32.294Z,95493.63
2022-09-09T05:48:59.406Z,95494.16
2022-09-09T05:51:33.581Z,95498.72
2022-09-09T05:54:07.150Z,95501.47
2022-09-09T05:56:38.177Z,95506.56
2022-09-09T05:59:08.095Z,95493.63
2022-09-09T06:01:41.441Z,95501.59
2022-09-09T06:04:11.052Z,95501.03
2022-09-09T06:06:40.878Z,95506.31
2022-09-09T06:09:14.442Z,95497.47
2022-09-09T06:11:44.117Z,95495.22
2022-09-09T06:14:12.335Z,95503.06
2022-09-09T06:16:43.210Z,95503.00
2022-09-09T06:19:16.980Z,95499.56
2022-09-09T06:21:45.351Z,95498.09
2022-09-09T06:24:14.765Z,95491.53
2022-09-09T06:26:42.263Z,95484.00
2022-09-09T06:29:12.208Z,95481.41
2022-09-09T06:31:42.470Z,95491.59
2022-09-09T06:34:24.230Z,95492.94
2022-09-09T06:36:56.143Z,95489.00
2022-09-09T06:39:23.546Z,95483.78
2022-09-09T06:41:53.952Z,95493.25
2022-09-09T06:44:46.626Z,95488.44
2022-09-09T06:47:21.427Z,95488.41
2022-09-09T06:49:48.837Z,95493.97
2022-09-09T06:52:18.267Z,95487.28
2022-09-09T06:54:46.252Z,95494.72
2022-09-09T06:57:35.877Z,95502.78
2022-09-09T07:00:02.374Z,95501.47
2022-09-09T07:02:32.888Z,95495.94
2022-09-09T07:05:00.420Z,95503.53
2022-09-09T07:07:28.249Z,95508.03
2022-09-09T07:09:55.437Z,95509.06
2022-09-09T07:12:23.138Z,95511.34
2022-09-09T07:14:56.195Z,95520.09
2022-09-09T07:17:23.319Z,95511.75
2022-09-09T07:19:50.548Z,95512.44
2022-09-09T07:22:18.234Z,95508.38
2022-09-09T07:24:46.140Z,95515.22
2022-09-09T07:27:16.474Z,95514.00
2022-09-09T07:29:43.852Z,95515.47
2022-09-09T07:32:11.952Z,95514.84
2022-09-09T07:34:39.264Z,95514.88
2022-09-09T07:37:06.740Z,95521.34
2022-09-09T07:39:35.008Z,95526.03
2022-09-09T07:42:02.568Z,95523.25
2022-09-09T07:44:30.223Z,95525.16
2022-09-09T07:47:04.874Z,95524.13
2022-09-09T07:49:37.358Z,95505.13
2022-09-09T07:54:41.475Z,95514.38
2022-09-09T07:57:08.603Z,95517.63
2022-09-09T07:59:38.533Z,95518.84
2022-09-09T08:02:05.781Z,95514.84
2022-09-09T08:04:35.639Z,95520.13
2022-09-09T08:07:04.329Z,95516.09
2022-09-09T08:09:36.481Z,95526.22
2022-09-09T08:12:13.910Z,95528.34
2022-09-09T08:14:41.156Z,95530.44
2022-09-09T08:17:08.369Z,95529.09
2022-09-09T08:19:36.740Z,95520.00
2022-09-09T08:22:08.612Z,95526.50
2022-09-09T08:24:37.170Z,95526.69
2022-09-09T08:27:04.474Z,95531.19
2022-09-09T08:29:31.738Z,95541.91
2022-09-09T08:32:00.804Z,95535.03
2022-09-09T08:34:29.861Z,95543.75
2022-09-09T08:36:59.322Z,95548.03
2022-09-09T08:39:34.912Z,95559.50
2022-09-09T08:42:14.601Z,95557.97
2022-09-09T08:45:30.038Z,95553.19
2022-09-09T08:48:09.668Z,95553.91
2022-09-09T08:50:39.492Z,95560.25
2022-09-09T08:53:22.722Z,95554.59
2022-09-09T08:56:04.430Z,95554.88
2022-09-09T08:58:47.412Z,95553.34
2022-09-09T09:01:52.190Z,95560.47
2022-09-09T09:04:39.284Z,95552.13
2022-09-09T09:07:18.778Z,95550.06
2022-09-09T09:10:37.588Z,95548.13
2022-09-09T09:13:02.647Z,95550.63
2022-09-09T09:15:37.365Z,95555.59
2022-09-09T09:18:06.624Z,95552.13
2022-09-09T09:21:03.458Z,95555.09
2022-09-09T09:23:40.634Z,95541.44
2022-09-09T09:26:12.107Z,95557.47
2022-09-09T09:28:41.337Z,95558.44
2022-09-09T09:31:14.878Z,95546.09
2022-09-09T09:33:54.197Z,95552.84
2022-09-09T09:36:53.647Z,95563.84
2022-09-09T09:42:24.876Z,95564.75
2022-09-09T09:44:55.481Z,95550.41
2022-09-09T09:47:24.417Z,95544.75
2022-09-09T09:50:21.328Z,95551.34
2022-09-09T09:53:05.090Z,95552.44
2022-09-09T09:55:36.525Z,95546.63
2022-09-09T09:58:18.455Z,95539.63
2022-09-09T10:00:52.070Z,95536.06
2022-09-09T10:03:32.678Z,95535.06
2022-09-09T10:06:01.903Z,95524.31
2022-09-09T10:08:29.095Z,95522.34
2022-09-09T10:10:56.284Z,95519.91
2022-09-09T10:13:41.574Z,95524.31
2022-09-09T10:16:21.850Z,95525.13
2022-09-09T10:19:03.891Z,95533.19
2022-09-09T10:21:43.845Z,95529.22
2022-09-09T10:24:10.900Z,95529.50
2022-09-09T10:26:55.229Z,95524.69
2022-09-09T10:29:22.306Z,95514.44
2022-09-09T10:32:20.344Z,95522.75
2022-09-09T10:34:53.218Z,95509.34
2022-09-09T10:37:48.305Z,95509.13
2022-09-09T10:40:31.426Z,95508.25
2022-09-09T10:43:26.343Z,95519.81
2022-09-09T10:46:18.516Z,95525.94
2022-09-09T10:48:57.668Z,95518.97
2022-09-09T10:51:42.491Z,95524.75
2022-09-09T10:54:12.701Z,95533.63
2022-09-09T10:56:43.501Z,95533.84
2022-09-09T10:59:21.736Z,95542.06
2022-09-09T11:02:11.734Z,95536.66
2022-09-09T11:04:45.500Z,95524.53
2022-09-09T11:07:18.004Z,95533.00
2022-09-09T11:09:53.786Z,95528.22
2022-09-09T11:12:24.698Z,95530.00
2022-09-09T11:14:59.468Z,95525.75
2022-09-09T11:17:37.444Z,95530.47
2022-09-09T11:20:06.899Z,95528.91
2022-09-09T11:23:01.268Z,95518.69
2022-09-09T11:25:44.516Z,95506.78
2022-09-09T11:28:39.820Z,95509.50
2022-09-09T11:31:09.877Z,95513.06
2022-09-09T11:34:10.984Z,95508.34
2022-09-09T11:36:59.855Z,95504.97
2022-09-09T11:39:33.085Z,95505.13
2022-09-09T11:42:19.267Z,95501.84
2022-09-09T11:44:46.930Z,95497.66
2022-09-09T11:47:27.351Z,95489.25
2022-09-09T11:49:55.037Z,95491.53
2022-09-09T11:52:37.951Z,95487.66
2022-09-09T11:55:37.792Z,95482.53
2022-09-09T11:58:14.910Z,95492.78
2022-09-09T12:00:49.618Z,95486.44
2022-09-09T12:03:49.626Z,95495.38
2022-09-09T12:06:33.678Z,95499.75
2022-09-09T12:09:14.445Z,95505.69
2022-09-09T12:11:41.493Z,95517.59
2022-09-09T12:14:21.970Z,95528.25
2022-09-09T12:16:49.572Z,95533.81
2022-09-09T12:19:24.816Z,95536.81
2022-09-09T12:22:42.401Z,95542.84
2022-09-09T12:25:30.907Z,95530.91
2022-09-09T12:28:10.342Z,95531.53
2022-09-09T12:31:29.091Z,95533.97
2022-09-09T12:33:56.220Z,95530.38
2022-09-09T12:36:29.304Z,95524.66
2022-09-09T12:39:00.686Z,95521.19
2022-09-09T12:41:29.871Z,95516.56
2022-09-09T12:44:10.960Z,95512.00
2022-09-09T12:46:44.390Z,95506.91
2022-09-09T12:49:39.420Z,95513.06
2022-09-09T12:52:37.507Z,95510.19
2022-09-09T12:55:07.267Z,95497.50
2022-09-09T12:57:40.290Z,95497.88
2022-09-09T13:00:19.992Z,95488.00
2022-09-09T13:02:54.904Z,95494.91
2022-09-09T13:05:25.204Z,95492.19
2022-09-09T13:07:53.027Z,95489.50
2022-09-09T13:10:36.744Z,95480.78
2022-09-09T13:13:21.907Z,95474.75
2022-09-09T13:15:56.237Z,95475.56
2022-09-09T13:18:30.666Z,95466.84
2022-09-09T13:21:01.200Z,95466.13
2022-09-09T13:23:34.306Z,95454.50
2022-09-09T13:26:05.433Z,95461.38
2022-09-09T13:28:34.465Z,95462.06
2022-09-09T13:31:03.874Z,95465.63
2022-09-09T13:33:32.222Z,95465.50
2022-09-09T13:36:03.843Z,95459.34
2022-09-09T13:38:36.579Z,95474.31
2022-09-09T13:41:09.452Z,95467.78
2022-09-09T13:43:45.150Z,95465.47
2022-09-09T13:46:42.082Z,95469.81
2022-09-09T13:49:12.190Z,95469.94
2022-09-09T13:51:46.403Z,95461.22
2022-09-09T13:54:15.877Z,95458.59
2022-09-09T13:56:44.960Z,95470.31
2022-09-09T13:59:14.812Z,95466.75
2022-09-09T14:01:42.375Z,95487.72
2022-09-09T14:04:11.385Z,95490.81
2022-09-09T14:06:40.223Z,95493.03
2022-09-09T14:09:11.158Z,95495.16
2022-09-09T14:11:38.511Z,95490.13
2022-09-09T14:14:06.177Z,95480.75
2022-09-09T14:16:33.706Z,95465.88
2022-09-09T14:19:01.195Z,95477.81
2022-09-09T14:21:28.689Z,95481.91
2022-09-09T14:23:55.897Z,95480.06
2022-09-09T14:26:23.045Z,95484.63
2022-09-09T14:28:55.222Z,95495.94
2022-09-09T14:31:25.675Z,95501.91
2022-09-09T14:33:53.664Z,95508.53
2022-09-09T14:36:21.195Z,95514.09
2022-09-09T14:38:48.330Z,95511.31
2022-09-09T14:41:18.089Z,95529.59
2022-09-09T14:43:46.709Z,95540.31
2022-09-09T14:46:16.586Z,95552.50
2022-09-09T14:48:44.915Z,95553.03
2022-09-09T14:51:16.135Z,95542.50
2022-09-09T14:53:44.271Z,95546.53
2022-09-09T14:56:13.392Z,95556.25
2022-09-09T14:58:40.538Z,95556.50
2022-09-09T15:01:12.673Z,95547.31
2022-09-09T15:03:41.196Z,95537.00
2022-09-09T15:06:09.549Z,95526.88
2022-09-09T15:08:41.850Z,95520.50
2022-09-09T15:11:11.575Z,95516.41
2022-09-09T15:13:40.179Z,95508.06
2022-09-09T15:16:15.659Z,95508.94
2022-09-09T15:18:45.687Z,95498.69
2022-09-09T15:21:15.548Z,95505.34
2022-09-09T15:23:43.436Z,95506.47
2022-09-09T15:26:11.195Z,95509.13
2022-09-09T15:28:39.436Z,95517.19
2022-09-09T15:31:24.128Z,95516.91
2022-09-09T15:34:03.268Z,95521.97
2022-09-09T15:36:33.358Z,95511.72
2022-09-09T15:39:01.937Z,95509.88
2022-09-09T15:41:30.152Z,95522.88
2022-09-09T15:43:58.188Z,95524.31
2022-09-09T15:46:33.227Z,95519.16
2022-09-09T15:49:12.136Z,95515.19
2022-09-09T15:51:44.934Z,95518.78
2022-09-09T15:54:14.588Z,95522.69
2022-09-09T15:56:42.398Z,95517.97
2022-09-09T15:59:10.070Z,95533.84
2022-09-09T16:01:37.265Z,95532.59
2022-09-09T16:04:04.906Z,95531.28
2022-09-09T16:06:32.118Z,95528.63
2022-09-09T16:09:00.456Z,95525.09
2022-09-09T16:11:32.184Z,95526.78
2022-09-09T16:14:00.413Z,95525.91
2022-09-09T16:16:30.945Z,95531.84
2022-09-09T16:19:00.564Z,95526.75
2022-09-09T16:21:30.201Z,95534.25
2022-09-09T16:24:00.432Z,95533.22
2022-09-09T16:26:28.588Z,95540.78
2022-09-09T16:28:55.780Z,95550.97
2022-09-09T16:31:24.705Z,95549.72
2022-09-09T16:33:52.191Z,95546.78
2022-09-09T16:36:23.811Z,95566.78
2022-09-09T16:38:58.927Z,95616.41
2022-09-09T16:41:28.567Z,95605.66
2022-09-09T16:43:58.212Z,95607.59
2022-09-09T16:46:26.273Z,95605.16
2022-09-09T16:48:53.488Z,95586.44
2022-09-09T16:51:25.885Z,95578.41
2022-09-09T16:53:54.700Z,95578.47
2022-09-09T16:56:27.485Z,95570.88
2022-09-09T16:59:00.009Z,95576.41
2022-09-09T17:01:29.913Z,95567.22
2022-09-09T17:04:01.155Z,95557.13
2022-09-09T17:06:30.661Z,95551.28
2022-09-09T17:09:01.043Z,95555.00
2022-09-09T17:11:29.772Z,95564.50
2022-09-09T17:13:59.023Z,95564.66
2022-09-09T17:16:29.433Z,95560.25
2022-09-09T17:18:57.863Z,95572.22
2022-09-09T17:21:26.544Z,95584.66
2022-09-09T17:23:54.844Z,95601.94
2022-09-09T17:26:23.603Z,95623.22
2022-09-09T17:28:50.921Z,95624.16
2022-09-09T17:31:19.410Z,95606.03
2022-09-09T17:33:48.983Z,95602.81
2022-09-09T17:36:23.009Z,95608.53
2022-09-09T17:38:50.481Z,95614.78
2022-09-09T17:41:23.563Z,95608.75
2022-09-09T17:43:51.579Z,95599.03
2022-09-09T17:46:24.651Z,95610.25
2022-09-09T17:48:55.567Z,95614.59
2022-09-09T17:51:25.532Z,95622.19
2022-09-09T17:53:55.728Z,95624.59
2022-09-09T17:56:24.493Z,95619.91
2022-09-09T17:58:53.675Z,95623.66
2022-09-09T18:01:23.455Z,95631.81
2022-09-09T18:03:51.266Z,95624.78
2022-09-09T18:06:24.140Z,95635.06
2022-09-09T18:08:53.557Z,95634.56
2022-09-09T18:11:21.117Z,95638.63
2022-09-09T18:13:53.681Z,95634.16
2022-09-09T18:16:22.365Z,95637.41
2022-09-09T18:18:50.480Z,95648.13
2022-09-09T18:21:19.319Z,95632.88
2022-09-09T18:23:49.459Z,95640.19
2022-09-09T18:26:19.614Z,95642.75
2022-09-09T18:28:51.726Z,95632.41
2022-09-09T18:31:21.200Z,95632.25
2022-09-09T18:33:51.577Z,95633.03
2022-09-09T18:36:24.517Z,95631.13
2022-09-09T18:38:52.553Z,95629.78
2022-09-09T18:41:22.456Z,95641.56
2022-09-09T18:43:57.765Z,95632.09
2022-09-09T18:46:26.481Z,95637.22
2022-09-09T18:48:55.871Z,95653.59
2022-09-09T18:51:25.217Z,95646.06
2022-09-09T18:53:54.935Z,95643.75
2022-09-09T18:56:22.963Z,95642.22
2022-09-09T18:58:55.637Z,95652.16
2022-09-09T19:01:23.329Z,95649.59
2022-09-09T19:03:51.228Z,95650.97
2022-09-09T19:06:23.756Z,95648.53
2022-09-09T19:08:55.781Z,95652.31
2022-09-09T19:11:26.629Z,95655.00
2022-09-09T19:13:55.084Z,95654.22
2022-09-09T19:16:23.779Z,95662.19
2022-09-09T19:18:52.538Z,95663.09
2022-09-09T19:21:23.079Z,95669.28
2022-09-09T19:23:56.613Z,95672.59
2022-09-09T19:26:24.050Z,95670.94
2022-09-09T19:28:51.744Z,95671.41
2022-09-09T19:31:20.348Z,95679.63
2022-09-09T19:33:48.988Z,95677.41
2022-09-09T19:36:18.280Z,95689.06
2022-09-09T19:38:46.187Z,95686.06
2022-09-09T19:41:20.383Z,95675.97
2022-09-09T19:43:47.892Z,95678.47
2022-09-09T19:46:16.228Z,95685.88
2022-09-09T19:48:45.317Z,95683.66
2022-09-09T19:51:15.344Z,95676.59
2022-09-09T19:53:48.732Z,95682.69
2022-09-09T19:56:18.289Z,95677.03
2022-09-09T19:58:47.478Z,95675.34
2022-09-09T20:01:23.162Z,95671.56
2022-09-09T20:03:52.183Z,95680.91
2022-09-09T20:06:23.545Z,95687.69
2022-09-09T20:08:50.988Z,95688.47
2022-09-09T20:11:18.615Z,95685.22
2022-09-09T20:13:47.059Z,95692.53
2022-09-09T20:16:16.890Z,95697.34
2022-09-09T20:18:46.927Z,95691.78
2022-09-09T20:21:16.927Z,95690.34
2022-09-09T20:23:44.352Z,95693.75
2022-09-09T20:26:14.111Z,95681.97
2022-09-09T20:28:42.316Z,95680.59
2022-09-09T20:31:19.947Z,95681.97
2022-09-09T20:33:47.862Z,95680.53
2022-09-09T20:36:18.314Z,95690.16
2022-09-09T20:38:51.447Z,95695.81
2022-09-09T20:41:21.607Z,95690.88
2022-09-09T20:43:53.345Z,95690.50
2022-09-09T20:46:25.325Z,95688.34
2022-09-09T20:49:00.796Z,95690.69
2022-09-09T20:51:33.071Z,95689.84
2022-09-09T20:54:03.752Z,95686.50
2022-09-09T20:56:34.381Z,95697.00
2022-09-09T20:59:02.655Z,95702.63
2022-09-09T21:01:29.739Z,95702.63
2022-09-09T21:03:56.957Z,95703.00
2022-09-09T21:06:24.039Z,95709.47
2022-09-09T21:08:51.359Z,95705.03
2022-09-09T21:11:18.606Z,95711.03
2022-09-09T21:13:45.811Z,95707.38
2022-09-09T21:16:15.828Z,95709.31
2022-09-09T21:18:44.324Z,95704.84
2022-09-09T21:21:12.003Z,95700.63
2022-09-09T21:23:39.416Z,95691.59
2022-09-09T21:26:07.632Z,95683.47
2022-09-09T21:28:35.944Z,95677.16
2022-09-09T21:31:05.545Z,95676.47
2022-09-09T21:33:34.225Z,95683.78
2022-09-09T21:36:06.313Z,95688.22
2022-09-09T21:38:34.575Z,95685.34
2022-09-09T21:41:07.465Z,95683.53
2022-09-09T21:43:34.980Z,95688.44
2022-09-09T21:46:07.670Z,95696.00
2022-09-09T21:48:35.216Z,95693.44
2022-09-09T21:51:11.271Z,95691.50
2022-09-09T21:53:39.584Z,95695.97
2022-09-09T21:56:10.640Z,95699.25
2022-09-09T21:58:38.386Z,95697.47
2022-09-09T22:01:14.555Z,95693.53
2022-09-09T22:03:42.638Z,95690.41
2022-09-09T22:06:12.849Z,95689.84
2022-09-09T22:08:40.432Z,95681.41
2022-09-09T22:11:09.842Z,95679.69
2022-09-09T22:13:38.120Z,95687.59
2022-09-09T22:16:07.779Z,95684.28
2022-09-09T22:18:35.595Z,95690.38
2022-09-09T22:21:15.866Z,95685.34
2022-09-09T22:23:43.011Z,95697.44
2022-09-09T22:26:10.314Z,95701.91
2022-09-09T22:28:38.579Z,95709.69
2022-09-09T22:31:06.073Z,95701.59
2022-09-09T22:33:33.421Z,95704.41
2022-09-09T22:36:00.632Z,95709.31
2022-09-09T22:38:27.704Z,95697.47
2022-09-09T22:40:54.867Z,95706.34
2022-09-09T22:43:22.827Z,95704.03
2022-09-09T22:45:50.782Z,95709.03
2022-09-09T22:48:18.193Z,95706.44
2022-09-09T22:50:46.589Z,95704.78
2022-09-09T22:53:15.326Z,95693.09
2022-09-09T22:55:43.585Z,95692.72
2022-09-09T22:58:10.704Z,95692.72
2022-09-09T23:00:41.041Z,95692.16
2022-09-09T23:03:08.228Z,95683.03
2022-09-09T23:05:36.097Z,95694.47
2022-09-09T23:08:03.176Z,95687.19
2022-09-09T23:10:33.709Z,95697.56
2022-09-09T23:13:00.883Z,95689.00
2022-09-09T23:15:29.244Z,95699.34
2022-09-09T23:17:56.574Z,95706.44
2022-09-09T23:20:26.097Z,95706.28
2022-09-09T23:22:53.235Z,95705.22
2022-09-09T23:25:20.283Z,95697.72
2022-09-09T23:27:48.514Z,95710.28
2022-09-09T23:30:15.629Z,95710.97
2022-09-09T23:32:46.896Z,95706.63
2022-09-09T23:35:14.824Z,95715.50
2022-09-09T23:37:41.895Z,95707.69
2022-09-09T23:40:10.534Z,95721.38
2022-09-09T23:42:37.649Z,95724.16
2022-09-09T23:45:05.429Z,95720.84
2022-09-09T23:47:32.504Z,95713.06
2022-09-09T23:49:59.617Z,95705.19
2022-09-09T23:52:26.685Z,95705.25
2022-09-09T23:54:53.814Z,95708.34
2022-09-09T23:57:21.675Z,95701.22
2022-09-09T23:59:48.753Z,95696.53
